| time (UTC) | temp F | wind direction | speed knots | gust knots | rain 1hr in | rain 24hr in | rain mn in | humidity % | barometer mb |
| 20260506083040 | 56 | 360 | 11.3 | 30.4 | 0.00 | 0.00 | 0.00 | 85 | 1018.2 |
| 20260506081545 | 55 | 360 | 9.6 | 25.2 | 0.00 | 0.00 | 0.00 | 87 | 1018.0 |
| 20260506073042 | 54 | 360 | 7.8 | 23.5 | 0.00 | 0.00 | 0.00 | 88 | 1018.7 |
| 20260506071531 | 53 | 360 | 6.1 | 17.4 | 0.00 | 0.00 | 0.00 | 88 | 1018.8 |
| 20260506061523 | 52 | 360 | 6.1 | 16.5 | 0.00 | 0.00 | 0.00 | 89 | 1019.2 |
| 20260506044533 | 50 | 360 | 6.1 | 17.4 | 0.00 | 0.00 | 0.00 | 83 | 1019.2 |
| 20260506043010 | 50 | 360 | 5.2 | 15.6 | 0.00 | 0.00 | 0.00 | 81 | 1019.3 |
| 20260506041508 | 50 | 360 | 4.3 | 11.3 | 0.00 | 0.00 | 0.00 | 79 | 1019.2 |
| 20260506040006 | 51 | 360 | 5.2 | 10.4 | 0.00 | 0.00 | 0.00 | 77 | 1019.0 |
| 20260506034510 | 51 | 360 | 4.3 | 18.2 | 0.00 | 0.00 | 0.00 | 76 | 1018.9 |
| 20260506033001 | 51 | 360 | 7.0 | 13.9 | 0.00 | 0.00 | 0.00 | 76 | 1018.6 |
| 20260506031502 | 50 | 360 | 7.8 | 20.0 | 0.00 | 0.00 | 0.00 | 77 | 1018.5 |
| 20260506030100 | 50 | 360 | 6.1 | 16.5 | 0.00 | 0.00 | 0.00 | 76 | 1018.5 |
| 20260506024556 | 51 | 360 | 6.1 | 15.6 | 0.00 | 0.00 | 0.00 | 76 | 1018.3 |
| 20260506023109 | 51 | 360 | 6.1 | 18.2 | 0.00 | 0.00 | 0.00 | 74 | 1018.1 |
| 20260506021554 | 51 | 360 | 9.6 | 18.2 | 0.00 | 0.00 | 0.00 | 74 | 1018.1 |
| 20260506020052 | 51 | 360 | 9.6 | 18.2 | 0.00 | 0.00 | 0.00 | 74 | 1018.1 |
| 20260506014551 | 51 | 360 | 8.7 | 20.9 | 0.00 | 0.00 | 0.00 | 75 | 1017.8 |
| 20260506013049 | 51 | 360 | 5.2 | 16.5 | 0.00 | 0.00 | 0.00 | 76 | 1017.6 |
| 20260506011603 | 50 | 360 | 6.1 | 16.5 | 0.00 | 0.00 | 0.00 | 77 | 1017.5 |
| 20260506010056 | 50 | 360 | 6.1 | 13.9 | 0.00 | 0.00 | 0.00 | 77 | 1017.5 |
| 20260506004603 | 50 | 360 | 7.8 | 18.2 | 0.00 | 0.00 | 0.00 | 77 | 1017.3 |
| 20260506003056 | 50 | 360 | 7.0 | 13.0 | 0.00 | 0.00 | 0.00 | 77 | 1017.1 |
| 20260506001543 | 50 | 360 | 4.3 | 11.3 | 0.00 | 0.00 | 0.00 | 77 | 1016.9 |
| 20260506000046 | 50 | 360 | 5.2 | 10.4 | 0.00 | 0.00 | 0.00 | 76 | 1016.9 |
| 20260505234559 | 51 | 360 | 6.1 | 16.5 | 0.00 | 0.00 | 0.00 | 76 | 1016.7 |
| 20260505233040 | 51 | 360 | 4.3 | 10.4 | 0.00 | 0.00 | 0.00 | 75 | 1016.4 |
| 20260505231537 | 52 | 360 | 4.3 | 8.7 | 0.00 | 0.00 | 0.00 | 73 | 1016.1 |
| 20260505230041 | 52 | 360 | 4.3 | 7.8 | 0.00 | 0.00 | 0.00 | 72 | 1015.7 |
| 20260505224536 | 53 | 360 | 3.5 | 9.6 | 0.00 | 0.00 | 0.00 | 70 | 1015.5 |
| 20260505223031 | 54 | 360 | 4.3 | 9.6 | 0.00 | 0.00 | 0.00 | 68 | 1015.1 |
| 20260505221528 | 54 | 360 | 1.7 | 8.7 | 0.00 | 0.00 | 0.00 | 68 | 1014.8 |
| 20260505220038 | 55 | 360 | 6.1 | 17.4 | 0.00 | 0.00 | 0.00 | 67 | 1014.6 |
| 20260505214532 | 56 | 360 | 6.1 | 13.9 | 0.00 | 0.00 | 0.00 | 65 | 1014.3 |
| 20260505213023 | 57 | 360 | 5.2 | 18.2 | 0.00 | 0.00 | 0.00 | 61 | 1014.0 |
| 20260505211520 | 58 | 360 | 7.0 | 20.0 | 0.00 | 0.00 | 0.00 | 55 | 1013.6 |
| 20260505210019 | 60 | 360 | 6.1 | 20.0 | 0.00 | 0.00 | 0.00 | 47 | 1013.5 |
| 20260505204518 | 60 | 360 | 5.2 | 13.9 | 0.00 | 0.00 | 0.00 | 43 | 1013.3 |
| 20260505203017 | 61 | 360 | 9.6 | 21.7 | 0.00 | 0.00 | 0.00 | 41 | 1013.2 |
| 20260505201521 | 60 | 360 | 7.8 | 20.0 | 0.00 | 0.00 | 0.00 | 40 | 1013.1 |
| 20260505200015 | 61 | 360 | 7.8 | 18.2 | 0.00 | 0.00 | 0.00 | 41 | 1013.1 |
| 20260505194528 | 60 | 360 | 8.7 | 20.9 | 0.00 | 0.00 | 0.00 | 42 | 1012.8 |
| 20260505193031 | 61 | 360 | 8.7 | 22.6 | 0.00 | 0.00 | 0.00 | 42 | 1012.8 |
| 20260505191511 | 60 | 360 | 7.0 | 22.6 | 0.00 | 0.00 | 0.00 | 44 | 1012.7 |
| 20260505190011 | 60 | 360 | 9.6 | 26.9 | 0.00 | 0.00 | 0.00 | 44 | 1012.3 |
| 20260505184508 | 60 | 360 | 8.7 | 28.7 | 0.00 | 0.00 | 0.00 | 44 | 1012.1 |
| 20260505183012 | 61 | 360 | 5.2 | 22.6 | 0.00 | 0.00 | 0.00 | 45 | 1012.0 |
| 20260505181506 | 60 | 360 | 7.8 | 27.8 | 0.00 | 0.00 | 0.00 | 44 | 1012.0 |
| 20260505180005 | 61 | 360 | 11.3 | 26.1 | 0.00 | 0.00 | 0.00 | 42 | 1011.9 |
| 20260505174504 | 61 | 360 | 10.4 | 32.2 | 0.00 | 0.00 | 0.00 | 42 | 1011.9 |
| 20260505173004 | 61 | 360 | 12.2 | 24.3 | 0.00 | 0.00 | 0.00 | 42 | 1012.1 |
| 20260505171502 | 61 | 360 | 7.8 | 21.7 | 0.00 | 0.00 | 0.00 | 43 | 1011.8 |
| 20260505170137 | 61 | 360 | 9.6 | 23.5 | 0.00 | 0.00 | 0.00 | 42 | 1011.5 |
| 20260505164558 | 61 | 360 | 9.6 | 23.5 | 0.00 | 0.00 | 0.00 | 40 | 1011.4 |
| 20260505163056 | 60 | 360 | 11.3 | 26.1 | 0.00 | 0.00 | 0.00 | 40 | 1011.2 |
| 20260505161602 | 60 | 360 | 13.0 | 26.1 | 0.00 | 0.00 | 0.00 | 41 | 1011.2 |
| 20260505153057 | 59 | 360 | 8.7 | 22.6 | 0.00 | 0.00 | 0.00 | 46 | 1010.8 |
| 20260505151552 | 59 | 360 | 13.0 | 23.5 | 0.00 | 0.00 | 0.00 | 46 | 1010.5 |
| 20260505124522 | 54 | 360 | 4.3 | 18.2 | 0.00 | 0.00 | 0.00 | 72 | 1009.3 |
| 20260505123023 | 52 | 360 | 8.7 | 20.9 | 0.00 | 0.00 | 0.00 | 74 | 1009.3 |
| 20260505121517 | 51 | 360 | 7.8 | 19.1 | 0.00 | 0.00 | 0.00 | 76 | 1008.9 |
| 20260505120014 | 51 | 360 | 7.0 | 17.4 | 0.00 | 0.00 | 0.00 | 77 | 1008.7 |
| 20260505114513 | 51 | 360 | 7.0 | 20.0 | 0.00 | 0.00 | 0.00 | 77 | 1008.7 |
| 20260505113017 | 51 | 360 | 4.3 | 15.6 | 0.00 | 0.00 | 0.00 | 78 | 1008.7 |
| 20260505111510 | 50 | 360 | 5.2 | 15.6 | 0.00 | 0.00 | 0.00 | 77 | 1008.6 |
| 20260505101557 | 47 | 360 | 7.0 | 13.0 | 0.00 | 0.00 | 0.00 | 81 | 1007.5 |
| 20260505100055 | 46 | 360 | 5.2 | 12.2 | 0.00 | 0.00 | 0.00 | 82 | 1007.2 |
| 20260505094551 | 45 | 360 | 3.5 | 16.5 | 0.00 | 0.00 | 0.00 | 82 | 1007.2 |
| 20260505093047 | 44 | 360 | 4.3 | 13.9 | 0.00 | 0.00 | 0.00 | 83 | 1006.6 |
| 20260505091545 | 43 | 360 | 7.0 | 13.9 | 0.00 | 0.00 | 0.00 | 84 | 1006.4 |
| 20260505090052 | 42 | 360 | 6.1 | 16.5 | 0.00 | 0.00 | 0.00 | 85 | 1006.3 |
| 20260505084544 | 42 | 360 | 3.5 | 13.0 | 0.00 | 0.00 | 0.00 | 85 | 1006.5 |